Time,TemperatureF,DewpointF,PressureIn,WindDirection,WindDirectionDegrees,WindSpeedMPH,WindSpeedGustMPH,Humidity,HourlyPrecipIn,Conditions,Clouds,dailyrainin,SoftwareType,DateUTC
2013-10-10 00:20:00,60.3,59.0,30.13,ENE,68,0.0,0.0,96,0.00,,,0.00,weatherlink.com 1.10,2013-10-10 04:20:00,
2013-10-10 00:35:00,59.9,59.0,30.13,ENE,68,0.0,0.0,96,0.00,,,0.00,weatherlink.com 1.10,2013-10-10 04:35:00,
2013-10-10 00:50:00,59.4,58.0,30.13,ENE,68,0.0,0.0,96,0.00,,,0.00,weatherlink.com 1.10,2013-10-10 04:50:00,
2013-10-10 01:05:00,58.8,58.0,30.13,ENE,68,0.0,0.0,96,0.00,,,0.00,weatherlink.com 1.10,2013-10-10 05:05:00,
2013-10-10 01:20:00,58.3,58.0,30.12,ENE,68,0.0,0.0,97,0.00,,,0.00,weatherlink.com 1.10,2013-10-10 05:20:00,
2013-10-10 01:35:00,57.9,57.0,30.12,ENE,68,0.0,0.0,97,0.00,,,0.00,weatherlink.com 1.10,2013-10-10 05:35:00,
2013-10-10 01:52:00,57.4,57.0,30.12,ENE,68,0.0,0.0,97,0.00,,,0.00,weatherlink.com 1.10,2013-10-10 05:52:00,
2013-10-10 02:06:00,57.2,56.0,30.12,ENE,68,0.0,0.0,97,0.00,,,0.00,weatherlink.com 1.10,2013-10-10 06:06:00,
2013-10-10 02:21:00,56.8,56.0,30.12,ENE,68,0.0,0.0,97,0.00,,,0.00,weatherlink.com 1.10,2013-10-10 06:21:00,
2013-10-10 02:36:00,56.6,56.0,30.12,ENE,68,0.0,0.0,97,0.00,,,0.00,weatherlink.com 1.10,2013-10-10 06:36:00,
2013-10-10 02:51:00,56.3,56.0,30.12,ENE,68,0.0,0.0,97,0.00,,,0.00,weatherlink.com 1.10,2013-10-10 06:51:00,
2013-10-10 03:06:00,56.0,56.0,30.12,ENE,68,0.0,0.0,98,0.00,,,0.00,weatherlink.com 1.10,2013-10-10 07:06:00,
2013-10-10 03:21:00,55.7,55.0,30.12,ENE,68,0.0,0.0,98,0.00,,,0.00,weatherlink.com 1.10,2013-10-10 07:21:00,
2013-10-10 03:36:00,55.7,55.0,30.12,ENE,68,0.0,0.0,98,0.00,,,0.00,weatherlink.com 1.10,2013-10-10 07:36:00,
2013-10-10 03:51:00,55.5,55.0,30.12,ENE,68,0.0,0.0,98,0.00,,,0.00,weatherlink.com 1.10,2013-10-10 07:51:00,
2013-10-10 04:06:00,55.2,55.0,30.12,ENE,68,0.0,0.0,98,0.00,,,0.00,weatherlink.com 1.10,2013-10-10 08:06:00,
2013-10-10 04:21:00,54.9,54.0,30.12,ENE,68,0.0,0.0,98,0.00,,,0.00,weatherlink.com 1.10,2013-10-10 08:21:00,
2013-10-10 04:36:00,54.6,54.0,30.12,ENE,68,0.0,0.0,98,0.00,,,0.00,weatherlink.com 1.10,2013-10-10 08:36:00,
2013-10-10 04:51:00,54.2,54.0,30.13,ENE,68,0.0,0.0,98,0.00,,,0.00,weatherlink.com 1.10,2013-10-10 08:51:00,
2013-10-10 05:21:00,53.9,53.0,30.13,ENE,68,0.0,0.0,98,0.00,,,0.00,weatherlink.com 1.10,2013-10-10 09:21:00,
2013-10-10 05:38:00,53.8,53.0,30.14,ENE,68,0.0,0.0,98,0.00,,,0.00,weatherlink.com 1.10,2013-10-10 09:38:00,
2013-10-10 05:51:00,53.7,53.0,30.14,ENE,68,0.0,0.0,98,0.00,,,0.00,weatherlink.com 1.10,2013-10-10 09:51:00,
2013-10-10 06:21:00,53.1,53.0,30.14,ENE,68,0.0,0.0,98,0.00,,,0.00,weatherlink.com 1.10,2013-10-10 10:21:00,
2013-10-10 06:36:00,53.2,53.0,30.14,ENE,68,0.0,0.0,98,0.00,,,0.00,weatherlink.com 1.10,2013-10-10 10:36:00,
2013-10-10 06:51:00,53.6,53.0,30.14,ENE,68,0.0,0.0,99,0.00,,,0.00,weatherlink.com 1.10,2013-10-10 10:51:00,
2013-10-10 07:06:00,53.4,53.0,30.14,ENE,68,0.0,0.0,98,0.00,,,0.00,weatherlink.com 1.10,2013-10-10 11:06:00,
2013-10-10 07:21:00,53.4,53.0,30.14,ENE,68,0.0,0.0,98,0.00,,,0.00,weatherlink.com 1.10,2013-10-10 11:21:00,
2013-10-10 07:36:00,53.4,53.0,30.14,ENE,68,0.0,0.0,99,0.00,,,0.00,weatherlink.com 1.10,2013-10-10 11:36:00,
2013-10-10 07:51:00,53.6,53.0,30.15,ENE,68,0.0,0.0,99,0.00,,,0.00,weatherlink.com 1.10,2013-10-10 11:51:00,
2013-10-10 08:06:00,53.5,53.0,30.15,ENE,68,0.0,0.0,99,0.00,,,0.00,weatherlink.com 1.10,2013-10-10 12:06:00,
2013-10-10 08:21:00,53.6,53.0,30.15,ENE,68,0.0,0.0,99,0.00,,,0.00,weatherlink.com 1.10,2013-10-10 12:21:00,
2013-10-10 08:36:00,53.9,54.0,30.16,ENE,68,0.0,0.0,99,0.00,,,0.00,weatherlink.com 1.10,2013-10-10 12:36:00,
2013-10-10 08:51:00,54.8,55.0,30.16,ENE,68,0.0,0.0,99,0.00,,,0.00,weatherlink.com 1.10,2013-10-10 12:51:00,
2013-10-10 09:06:00,56.0,56.0,30.16,ENE,68,0.0,0.0,99,0.00,,,0.00,weatherlink.com 1.10,2013-10-10 13:06:00,
2013-10-10 09:22:00,57.7,58.0,30.16,ENE,68,0.0,0.0,99,0.00,,,0.00,weatherlink.com 1.10,2013-10-10 13:22:00,
2013-10-10 09:36:00,58.9,59.0,30.16,ENE,68,0.0,0.0,99,0.00,,,0.00,weatherlink.com 1.10,2013-10-10 13:36:00,
2013-10-10 09:51:00,60.0,60.0,30.16,ENE,68,0.0,0.0,99,0.00,,,0.00,weatherlink.com 1.10,2013-10-10 13:51:00,
2013-10-10 10:06:00,60.7,61.0,30.17,ENE,68,0.0,0.0,99,0.00,,,0.00,weatherlink.com 1.10,2013-10-10 14:06:00,
2013-10-10 10:21:00,61.3,61.0,30.16,ENE,69,0.0,1.0,99,0.00,,,0.00,weatherlink.com 1.10,2013-10-10 14:21:00,
2013-10-10 10:36:00,62.1,61.0,30.16,SE,140,0.0,2.0,95,0.00,,,0.00,weatherlink.com 1.10,2013-10-10 14:36:00,
2013-10-10 10:51:00,64.7,60.0,30.16,NE,34,0.0,3.0,85,0.00,,,0.00,weatherlink.com 1.10,2013-10-10 14:51:00,
2013-10-10 11:06:00,66.8,61.0,30.16,NE,46,0.0,1.0,82,0.00,,,0.00,weatherlink.com 1.10,2013-10-10 15:06:00,
2013-10-10 11:21:00,68.6,62.0,30.15,NW,319,0.0,0.0,80,0.00,,,0.00,weatherlink.com 1.10,2013-10-10 15:21:00,
2013-10-10 11:37:00,70.2,62.0,30.15,NE,37,0.0,1.0,74,0.00,,,0.00,weatherlink.com 1.10,2013-10-10 15:37:00,
2013-10-10 11:52:00,70.8,62.0,30.14,North,5,1.0,2.0,74,0.00,,,0.00,weatherlink.com 1.10,2013-10-10 15:52:00,
2013-10-10 12:07:00,71.8,62.0,30.14,ESE,104,0.0,2.0,72,0.00,,,0.00,weatherlink.com 1.10,2013-10-10 16:07:00,
2013-10-10 12:22:00,73.2,63.0,30.14,ENE,61,0.0,2.0,70,0.00,,,0.00,weatherlink.com 1.10,2013-10-10 16:22:00,
2013-10-10 12:37:00,74.5,64.0,30.13,SSW,210,0.0,3.0,69,0.00,,,0.00,weatherlink.com 1.10,2013-10-10 16:37:00,
2013-10-10 12:52:00,75.2,62.0,30.12,NE,39,0.0,3.0,64,0.00,,,0.00,weatherlink.com 1.10,2013-10-10 16:52:00,
2013-10-10 13:07:00,76.4,62.0,30.12,North,351,0.0,4.0,61,0.00,,,0.00,weatherlink.com 1.10,2013-10-10 17:07:00,
2013-10-10 13:22:00,76.1,63.0,30.12,ESE,103,0.0,1.0,64,0.00,,,0.00,weatherlink.com 1.10,2013-10-10 17:22:00,
2013-10-10 13:37:00,76.2,63.0,30.11,WNW,292,1.0,5.0,63,0.00,,,0.00,weatherlink.com 1.10,2013-10-10 17:37:00,
2013-10-10 13:52:00,75.1,62.0,30.10,NNW,345,0.0,2.0,64,0.00,,,0.00,weatherlink.com 1.10,2013-10-10 17:52:00,
2013-10-10 14:07:00,77.2,60.0,30.09,NNW,347,2.0,4.0,55,0.00,,,0.00,weatherlink.com 1.10,2013-10-10 18:07:00,
2013-10-10 14:22:00,77.9,60.0,30.08,ESE,117,0.0,3.0,55,0.00,,,0.00,weatherlink.com 1.10,2013-10-10 18:22:00,
2013-10-10 14:37:00,78.7,59.0,30.07,NNW,336,1.0,6.0,51,0.00,,,0.00,weatherlink.com 1.10,2013-10-10 18:37:00,
2013-10-10 14:52:00,78.1,59.0,30.07,North,9,0.0,3.0,53,0.00,,,0.00,weatherlink.com 1.10,2013-10-10 18:52:00,
2013-10-10 15:07:00,78.0,60.0,30.07,North,10,2.0,2.0,54,0.00,,,0.00,weatherlink.com 1.10,2013-10-10 19:07:00,
2013-10-10 15:22:00,77.7,60.0,30.06,NW,312,1.0,3.0,54,0.00,,,0.00,weatherlink.com 1.10,2013-10-10 19:22:00,
2013-10-10 15:37:00,76.7,60.0,30.07,East,79,0.0,2.0,56,0.00,,,0.00,weatherlink.com 1.10,2013-10-10 19:37:00,
2013-10-10 15:52:00,75.4,59.0,30.06,East,89,0.0,1.0,57,0.00,,,0.00,weatherlink.com 1.10,2013-10-10 19:52:00,
2013-10-10 16:07:00,77.6,57.0,30.06,East,88,0.0,2.0,50,0.00,,,0.00,weatherlink.com 1.10,2013-10-10 20:07:00,
2013-10-10 16:22:00,76.6,60.0,30.06,SE,139,0.0,2.0,57,0.00,,,0.00,weatherlink.com 1.10,2013-10-10 20:22:00,
2013-10-10 16:37:00,77.1,60.0,30.05,NE,46,0.0,1.0,56,0.00,,,0.00,weatherlink.com 1.10,2013-10-10 20:37:00,
2013-10-10 16:52:00,78.5,58.0,30.05,SE,128,0.0,3.0,50,0.00,,,0.00,weatherlink.com 1.10,2013-10-10 20:52:00,
2013-10-10 17:07:00,78.4,59.0,30.05,North,359,0.0,5.0,52,0.00,,,0.00,weatherlink.com 1.10,2013-10-10 21:07:00,
2013-10-10 17:22:00,76.8,60.0,30.05,NE,51,0.0,1.0,56,0.00,,,0.00,weatherlink.com 1.10,2013-10-10 21:22:00,
2013-10-10 17:37:00,76.5,60.0,30.04,ESE,110,0.0,1.0,56,0.00,,,0.00,weatherlink.com 1.10,2013-10-10 21:37:00,
2013-10-10 17:52:00,75.4,58.0,30.05,East,85,0.0,1.0,56,0.00,,,0.00,weatherlink.com 1.10,2013-10-10 21:52:00,
2013-10-10 18:07:00,74.5,59.0,30.04,East,82,0.0,1.0,59,0.00,,,0.00,weatherlink.com 1.10,2013-10-10 22:07:00,
2013-10-10 18:22:00,73.5,61.0,30.04,East,79,0.0,1.0,64,0.00,,,0.00,weatherlink.com 1.10,2013-10-10 22:22:00,
2013-10-10 18:37:00,71.7,60.0,30.04,East,79,0.0,0.0,66,0.00,,,0.00,weatherlink.com 1.10,2013-10-10 22:37:00,
2013-10-10 18:52:00,70.4,60.0,30.04,North,1,0.0,1.0,69,0.00,,,0.00,weatherlink.com 1.10,2013-10-10 22:52:00,
2013-10-10 19:07:00,68.9,60.0,30.04,North,2,0.0,0.0,74,0.00,,,0.00,weatherlink.com 1.10,2013-10-10 23:07:00,
2013-10-10 19:22:00,67.3,60.0,30.04,North,4,0.0,0.0,77,0.00,,,0.00,weatherlink.com 1.10,2013-10-10 23:22:00,
2013-10-10 19:37:00,65.7,59.0,30.04,North,5,0.0,0.0,80,0.00,,,0.00,weatherlink.com 1.10,2013-10-10 23:37:00,
2013-10-10 19:52:00,64.3,59.0,30.04,North,5,0.0,0.0,82,0.00,,,0.00,weatherlink.com 1.10,2013-10-10 23:52:00,
2013-10-10 20:07:00,63.8,59.0,30.05,North,5,0.0,0.0,83,0.00,,,0.00,weatherlink.com 1.10,2013-10-11 00:07:00,
2013-10-10 20:23:00,62.8,59.0,30.05,North,7,0.0,1.0,86,0.00,,,0.00,weatherlink.com 1.10,2013-10-11 00:23:00,
2013-10-10 20:38:00,62.0,59.0,30.05,North,7,0.0,0.0,88,0.00,,,0.00,weatherlink.com 1.10,2013-10-11 00:38:00,
2013-10-10 20:52:00,61.3,58.0,30.05,North,7,0.0,0.0,89,0.00,,,0.00,weatherlink.com 1.10,2013-10-11 00:52:00,
2013-10-10 21:08:00,60.7,58.0,30.05,North,7,0.0,0.0,90,0.00,,,0.00,weatherlink.com 1.10,2013-10-11 01:08:00,
2013-10-10 21:23:00,60.2,57.0,30.05,North,7,0.0,0.0,90,0.00,,,0.00,weatherlink.com 1.10,2013-10-11 01:23:00,
2013-10-10 21:38:00,59.9,57.0,30.05,North,7,0.0,0.0,91,0.00,,,0.00,weatherlink.com 1.10,2013-10-11 01:38:00,
2013-10-10 21:53:00,59.5,57.0,30.05,North,7,0.0,0.0,91,0.00,,,0.00,weatherlink.com 1.10,2013-10-11 01:53:00,
2013-10-10 22:08:00,59.1,57.0,30.05,North,7,0.0,0.0,92,0.00,,,0.00,weatherlink.com 1.10,2013-10-11 02:08:00,
2013-10-10 22:23:00,58.6,56.0,30.06,North,7,0.0,0.0,92,0.00,,,0.00,weatherlink.com 1.10,2013-10-11 02:23:00,
2013-10-10 22:38:00,58.1,56.0,30.05,North,7,0.0,0.0,93,0.00,,,0.00,weatherlink.com 1.10,2013-10-11 02:38:00,
2013-10-10 22:53:00,57.7,56.0,30.06,North,7,0.0,0.0,94,0.00,,,0.00,weatherlink.com 1.10,2013-10-11 02:53:00,
2013-10-10 23:08:00,57.2,56.0,30.05,North,7,0.0,0.0,94,0.00,,,0.00,weatherlink.com 1.10,2013-10-11 03:08:00,
2013-10-10 23:23:00,56.8,55.0,30.05,North,7,0.0,0.0,95,0.00,,,0.00,weatherlink.com 1.10,2013-10-11 03:23:00,
2013-10-10 23:38:00,56.3,55.0,30.05,North,7,0.0,0.0,95,0.00,,,0.00,weatherlink.com 1.10,2013-10-11 03:38:00,
2013-10-10 23:53:00,55.6,54.0,30.06,North,7,0.0,0.0,95,0.00,,,0.00,weatherlink.com 1.10,2013-10-11 03:53:00,